createdAt,value
2023-04-15T00:02:29.852Z,4.95
2023-04-15T00:07:32.183Z,5.47
2023-04-15T00:12:34.348Z,5.20
2023-04-15T00:17:38.601Z,5.47
2023-04-15T00:22:40.931Z,5.50
2023-04-15T00:27:43.218Z,5.72
2023-04-15T00:32:45.860Z,5.68
2023-04-15T00:37:48.172Z,5.65
2023-04-15T00:42:50.974Z,5.78
2023-04-15T00:47:53.236Z,6.18
2023-04-15T00:52:55.439Z,5.93
2023-04-15T00:57:58.137Z,6.10
2023-04-15T01:03:00.926Z,6.72
2023-04-15T01:08:03.925Z,6.53
2023-04-15T01:13:06.110Z,7.22
2023-04-15T01:18:09.809Z,6.75
2023-04-15T01:23:13.613Z,6.55
2023-04-15T01:28:16.335Z,7.22
2023-04-15T01:33:18.695Z,6.80
2023-04-15T01:38:41.411Z,7.38
2023-04-15T01:43:43.647Z,8.05
2023-04-15T01:48:47.491Z,8.93
2023-04-15T01:53:51.274Z,9.27
2023-04-15T01:58:54.756Z,9.18
2023-04-15T02:03:58.659Z,10.38
2023-04-15T02:09:02.294Z,12.10
2023-04-15T02:14:06.574Z,11.48
2023-04-15T02:19:10.091Z,10.48
2023-04-15T02:24:14.473Z,10.80
2023-04-15T02:29:18.020Z,10.82
2023-04-15T02:34:21.669Z,10.50
2023-04-15T02:39:25.204Z,10.63
2023-04-15T02:44:28.988Z,10.23
2023-04-15T02:49:36.046Z,10.02
2023-04-15T02:54:39.543Z,10.02
2023-04-15T02:59:42.961Z,10.02
2023-04-15T03:04:46.642Z,10.30
2023-04-15T03:09:50.179Z,9.70
2023-04-15T03:14:53.907Z,9.57
2023-04-15T03:20:05.441Z,9.48
2023-04-15T03:25:09.741Z,8.25
2023-04-15T03:30:14.353Z,8.77
2023-04-15T03:35:18.416Z,9.25
2023-04-15T03:40:22.457Z,9.35
2023-04-15T03:45:26.312Z,9.00
2023-04-15T03:50:29.678Z,9.68
2023-04-15T03:55:33.098Z,9.50
2023-04-15T04:00:36.721Z,9.50
2023-04-15T04:05:41.751Z,10.07
2023-04-15T04:10:45.183Z,9.73
2023-04-15T04:15:48.648Z,9.80
2023-04-15T04:20:52.165Z,10.10
2023-04-15T04:25:55.616Z,9.63
2023-04-15T04:30:59.058Z,9.95
2023-04-15T04:36:02.463Z,10.70
2023-04-15T04:41:06.510Z,9.73
2023-04-15T04:46:10.574Z,10.02
2023-04-15T04:51:14.011Z,9.13
2023-04-15T04:56:17.381Z,9.77
2023-04-15T05:01:21.054Z,9.35
2023-04-15T05:06:24.768Z,8.55
2023-04-15T05:11:28.547Z,8.60
2023-04-15T05:16:31.987Z,9.13
2023-04-15T05:21:37.588Z,10.13
2023-04-15T05:26:42.962Z,10.02
2023-04-15T05:31:46.410Z,10.27
2023-04-15T05:36:49.973Z,9.98
2023-04-15T05:41:53.466Z,9.65
2023-04-15T05:46:57.135Z,10.32
2023-04-15T05:52:00.908Z,9.77
2023-04-15T05:57:04.377Z,9.80
2023-04-15T06:02:07.918Z,9.32
2023-04-15T06:07:12.002Z,20.23
2023-04-15T06:12:15.903Z,11.30
2023-04-15T06:17:19.564Z,11.38
2023-04-15T06:22:23.776Z,25.85
2023-04-15T06:27:27.143Z,11.95
2023-04-15T06:32:30.646Z,11.13
2023-04-15T06:37:34.146Z,10.27
2023-04-15T06:42:38.508Z,12.77
2023-04-15T06:47:42.268Z,15.68
2023-04-15T06:52:46.055Z,18.50
2023-04-15T06:57:49.481Z,33.65
2023-04-15T07:02:52.979Z,9.13
2023-04-15T07:07:57.450Z,7.05
2023-04-15T07:13:01.938Z,6.53
2023-04-15T07:18:05.441Z,6.10
2023-04-15T07:23:08.951Z,6.75
2023-04-15T07:28:12.336Z,6.03
2023-04-15T07:33:15.965Z,5.78
2023-04-15T07:38:19.417Z,5.25
2023-04-15T07:43:22.852Z,5.65
2023-04-15T07:48:26.706Z,5.13
2023-04-15T07:53:30.575Z,5.60
2023-04-15T07:58:33.944Z,5.82
2023-04-15T08:03:37.839Z,5.53
2023-04-15T08:08:41.863Z,5.60
2023-04-15T08:13:45.574Z,4.93
2023-04-15T08:18:50.263Z,4.68
2023-04-15T08:23:54.817Z,4.30
2023-04-15T08:28:58.502Z,3.92
2023-04-15T08:34:02.047Z,3.80
2023-04-15T08:39:05.547Z,3.60
2023-04-15T08:44:09.651Z,3.00
2023-04-15T08:49:13.665Z,3.13
2023-04-15T08:54:17.247Z,2.97
2023-04-15T08:59:22.297Z,6.78
2023-04-15T09:04:25.700Z,7.15
2023-04-15T09:09:29.330Z,7.97
2023-04-15T09:14:34.199Z,4.70
2023-04-15T09:19:37.839Z,8.75
2023-04-15T09:24:43.511Z,3.55
2023-04-15T09:29:50.844Z,3.85
2023-04-15T09:34:54.292Z,3.88
2023-04-15T09:39:57.689Z,3.65
2023-04-15T09:45:12.257Z,3.38
2023-04-15T09:50:16.345Z,3.38
2023-04-15T09:55:22.712Z,3.08
2023-04-15T10:00:26.299Z,3.75
2023-04-15T10:05:31.330Z,2.85
2023-04-15T10:10:35.023Z,3.20
2023-04-15T10:15:38.956Z,3.15
2023-04-15T10:20:43.143Z,3.00
2023-04-15T10:25:52.033Z,7.35
2023-04-15T10:30:57.459Z,13.13
2023-04-15T10:36:02.109Z,4.65
2023-04-15T10:41:21.990Z,3.00
2023-04-15T10:46:44.824Z,2.95
2023-04-15T10:51:59.061Z,2.70
2023-04-15T10:57:03.022Z,2.80
2023-04-15T11:02:07.865Z,2.30
2023-04-15T11:07:11.401Z,3.05
2023-04-15T11:12:14.907Z,3.08
2023-04-15T11:17:31.324Z,8.38
2023-04-15T11:22:34.798Z,18.77
2023-04-15T11:27:38.542Z,7.45
2023-04-15T11:32:45.114Z,3.20
2023-04-15T11:37:50.588Z,3.22
2023-04-15T11:43:11.550Z,3.47
2023-04-15T11:48:15.709Z,3.75
2023-04-15T11:53:19.438Z,3.58
2023-04-15T11:58:26.910Z,4.55
2023-04-15T12:03:36.230Z,4.80
2023-04-15T12:09:06.589Z,5.05
2023-04-15T12:14:13.314Z,5.78
2023-04-15T12:19:18.694Z,5.60
2023-04-15T12:24:23.217Z,5.80
2023-04-15T12:29:28.592Z,6.25
2023-04-15T12:34:39.377Z,7.72
2023-04-15T12:39:43.967Z,8.30
2023-04-15T12:44:47.213Z,9.02
2023-04-15T12:49:49.866Z,8.88
2023-04-15T12:54:53.711Z,10.00
2023-04-15T12:59:56.434Z,10.82
2023-04-15T13:05:01.946Z,10.90
2023-04-15T13:10:04.788Z,10.85
2023-04-15T13:15:09.603Z,12.50
2023-04-15T13:20:13.239Z,11.30
2023-04-15T13:25:15.796Z,12.98
2023-04-15T13:30:18.332Z,20.73
2023-04-15T13:35:21.602Z,15.27
2023-04-15T13:40:24.058Z,14.60
2023-04-15T13:45:27.284Z,15.73
2023-04-15T13:50:29.686Z,17.00
2023-04-15T13:55:32.007Z,16.95
2023-04-15T14:00:34.289Z,17.23
2023-04-15T14:05:36.627Z,18.17
2023-04-15T14:10:38.886Z,18.48
2023-04-15T14:15:41.874Z,20.90
2023-04-15T14:20:44.413Z,19.98
2023-04-15T14:25:48.291Z,21.60
2023-04-15T14:30:51.279Z,22.00
2023-04-15T14:35:53.708Z,21.55
2023-04-15T14:40:56.200Z,22.08
2023-04-15T14:45:58.694Z,22.45
2023-04-15T14:51:04.393Z,22.45
2023-04-15T14:56:07.215Z,24.25
2023-04-15T15:01:10.133Z,24.40
2023-04-15T15:06:12.564Z,24.02
2023-04-15T15:11:14.828Z,23.33
2023-04-15T15:16:17.626Z,24.67
2023-04-15T15:21:20.064Z,24.65
2023-04-15T15:26:25.558Z,60.85
2023-04-15T15:31:28.012Z,31.58
2023-04-15T15:36:31.893Z,23.77
2023-04-15T15:41:34.427Z,23.85
2023-04-15T15:46:37.158Z,23.15
2023-04-15T15:51:39.887Z,22.95
2023-04-15T15:56:42.615Z,23.08
2023-04-15T16:01:45.110Z,23.27
2023-04-15T16:06:49.018Z,22.58
2023-04-15T16:11:51.513Z,25.25
2023-04-15T16:16:54.360Z,24.45
2023-04-15T16:21:57.030Z,24.90
2023-04-15T16:26:59.553Z,23.77
2023-04-15T16:32:01.856Z,24.48
2023-04-15T16:37:04.141Z,24.55
2023-04-15T16:42:07.533Z,23.90
2023-04-15T16:47:18.165Z,23.83
2023-04-15T16:52:20.430Z,22.55
2023-04-15T16:57:22.649Z,24.05
2023-04-15T17:02:26.913Z,21.77
2023-04-15T17:07:29.160Z,22.85
2023-04-15T17:12:32.019Z,22.10
2023-04-15T17:17:34.616Z,21.75
2023-04-15T17:22:37.003Z,21.98
2023-04-15T17:27:39.531Z,20.40
2023-04-15T17:32:48.614Z,21.10
2023-04-15T17:38:10.928Z,21.20
2023-04-15T17:43:33.035Z,20.83
2023-04-15T17:48:55.432Z,22.23
2023-04-15T17:54:17.644Z,20.60
2023-04-15T17:59:44.117Z,20.70
2023-04-15T18:05:06.803Z,22.48
2023-04-15T18:10:28.998Z,20.15
2023-04-15T18:15:52.165Z,21.38
2023-04-15T18:21:15.577Z,20.73
2023-04-15T18:26:18.699Z,19.27
2023-04-15T18:31:22.230Z,18.92
2023-04-15T18:36:25.576Z,19.52
2023-04-15T18:41:28.667Z,18.83
2023-04-15T18:46:31.934Z,20.98
2023-04-15T18:51:34.969Z,18.33
2023-04-15T18:56:37.797Z,19.25
2023-04-15T19:01:40.853Z,18.77
2023-04-15T19:06:44.077Z,19.55
2023-04-15T19:11:46.440Z,19.33
2023-04-15T19:16:49.091Z,18.52
2023-04-15T19:21:53.869Z,19.20
2023-04-15T19:26:58.444Z,19.63
2023-04-15T19:32:02.163Z,19.05
2023-04-15T19:37:05.256Z,18.63
2023-04-15T19:42:08.303Z,19.63
2023-04-15T19:47:11.740Z,22.67
2023-04-15T19:52:14.608Z,33.80
2023-04-15T19:57:17.077Z,36.20
2023-04-15T20:02:21.550Z,19.15
2023-04-15T20:07:23.906Z,18.65
2023-04-15T20:12:50.160Z,18.60
2023-04-15T20:17:49.874Z,19.25
2023-04-15T20:22:53.305Z,20.50
2023-04-15T20:28:00.395Z,21.08
2023-04-15T20:33:05.200Z,25.40
2023-04-15T20:38:07.365Z,23.13
2023-04-15T20:43:09.515Z,19.70
2023-04-15T20:48:11.802Z,20.00
2023-04-15T20:53:14.003Z,19.25
2023-04-15T20:58:16.275Z,19.60
2023-04-15T21:03:18.603Z,18.35
2023-04-15T21:08:29.237Z,22.10
2023-04-15T21:13:31.509Z,19.63
2023-04-15T21:18:33.697Z,18.85
2023-04-15T21:23:36.165Z,18.55
2023-04-15T21:28:39.400Z,16.60
2023-04-15T21:33:41.575Z,17.25
2023-04-15T21:38:43.802Z,18.50
2023-04-15T21:43:46.124Z,17.80
2023-04-15T21:48:48.400Z,18.33
2023-04-15T21:53:50.892Z,17.83
2023-04-15T21:58:59.421Z,18.92
2023-04-15T22:04:01.919Z,19.58
2023-04-15T22:09:04.266Z,19.13
2023-04-15T22:14:06.557Z,18.60
2023-04-15T22:19:09.877Z,18.63
2023-04-15T22:24:39.129Z,19.63
2023-04-15T22:29:35.206Z,18.75
2023-04-15T22:34:37.360Z,19.38
2023-04-15T22:39:39.610Z,18.92
2023-04-15T22:44:41.962Z,18.77
2023-04-15T22:49:45.096Z,18.92
2023-04-15T22:54:47.304Z,17.88
2023-04-15T22:59:49.535Z,19.05
2023-04-15T23:04:51.900Z,19.00
2023-04-15T23:09:54.161Z,19.20
2023-04-15T23:14:56.298Z,19.65
2023-04-15T23:19:58.484Z,19.00
2023-04-15T23:25:00.890Z,18.75
2023-04-15T23:30:03.565Z,19.30
2023-04-15T23:35:06.322Z,18.85
2023-04-15T23:40:09.048Z,18.65
2023-04-15T23:45:11.979Z,18.77
2023-04-15T23:50:14.142Z,18.75
2023-04-15T23:55:16.385Z,19.55
